createdAt,value
2023-04-05T00:01:19.646Z,3.37
2023-04-05T00:03:50.622Z,3.31
2023-04-05T00:06:22.233Z,3.26
2023-04-05T00:08:55.814Z,3.23
2023-04-05T00:11:26.614Z,3.24
2023-04-05T00:14:00.321Z,3.21
2023-04-05T00:16:32.146Z,3.20
2023-04-05T00:19:02.966Z,3.18
2023-04-05T00:21:33.544Z,3.02
2023-04-05T00:24:04.057Z,3.16
2023-04-05T00:26:34.665Z,3.12
2023-04-05T00:29:08.015Z,3.05
2023-04-05T00:31:38.516Z,3.04
2023-04-05T00:34:10.552Z,2.94
2023-04-05T00:36:41.376Z,2.86
2023-04-05T00:39:11.924Z,2.76
2023-04-05T00:41:45.724Z,2.64
2023-04-05T00:44:20.114Z,2.51
2023-04-05T00:46:51.457Z,2.50
2023-04-05T00:49:22.342Z,2.48
2023-04-05T00:51:52.997Z,2.34
2023-04-05T00:54:23.701Z,2.20
2023-04-05T00:56:55.117Z,2.12
2023-04-05T00:59:29.247Z,1.92
2023-04-05T01:02:09.122Z,1.94
2023-04-05T01:04:41.740Z,1.97
2023-04-05T01:07:20.399Z,1.90
2023-04-05T01:09:58.881Z,1.87
2023-04-05T01:12:33.714Z,1.92
2023-04-05T01:15:07.777Z,2.02
2023-04-05T01:17:39.611Z,2.08
2023-04-05T01:20:13.418Z,2.12
2023-04-05T01:23:14.960Z,2.10
2023-04-05T01:26:17.020Z,2.05
2023-04-05T01:29:17.948Z,1.89
2023-04-05T01:31:59.849Z,2.07
2023-04-05T01:34:43.206Z,2.06
2023-04-05T01:37:18.684Z,2.11
2023-04-05T01:39:51.111Z,2.11
2023-04-05T01:42:27.431Z,2.06
2023-04-05T01:45:00.155Z,2.02
2023-04-05T01:47:33.404Z,2.07
2023-04-05T01:50:04.570Z,2.08
2023-04-05T01:52:35.187Z,2.15
2023-04-05T01:55:06.311Z,2.19
2023-04-05T01:57:37.161Z,2.16
2023-04-05T02:00:09.168Z,2.14
2023-04-05T02:02:46.276Z,2.02
2023-04-05T02:05:17.239Z,2.10
2023-04-05T02:07:48.055Z,2.10
2023-04-05T02:10:18.858Z,2.07
2023-04-05T02:12:49.502Z,2.02
2023-04-05T02:15:20.252Z,2.07
2023-04-05T02:17:54.380Z,2.05
2023-04-05T02:20:26.061Z,1.99
2023-04-05T02:22:56.739Z,1.99
2023-04-05T02:25:27.457Z,1.98
2023-04-05T02:27:58.068Z,1.96
2023-04-05T02:30:29.422Z,1.97
2023-04-05T02:33:03.582Z,1.98
2023-04-05T02:35:34.086Z,1.96
2023-04-05T02:38:04.903Z,1.99
2023-04-05T02:40:42.299Z,1.94
2023-04-05T02:43:13.256Z,2.02
2023-04-05T02:45:46.263Z,2.04
2023-04-05T02:48:20.912Z,1.83
2023-04-05T02:50:52.474Z,1.94
2023-04-05T02:53:23.875Z,1.84
2023-04-05T02:56:01.215Z,1.95
2023-04-05T02:58:33.052Z,1.90
2023-04-05T03:01:07.552Z,1.88
2023-04-05T03:03:42.420Z,1.86
2023-04-05T03:06:13.674Z,1.86
2023-04-05T03:08:51.143Z,1.85
2023-04-05T03:11:26.189Z,1.83
2023-04-05T03:14:00.878Z,1.79
2023-04-05T03:16:40.479Z,1.76
2023-04-05T03:19:29.700Z,1.75
2023-04-05T03:22:11.269Z,1.76
2023-04-05T03:24:42.826Z,1.77
2023-04-05T03:27:15.779Z,1.78
2023-04-05T03:30:02.570Z,1.76
2023-04-05T03:32:36.454Z,1.76
2023-04-05T03:35:25.940Z,1.71
2023-04-05T03:37:56.782Z,1.64
2023-04-05T03:40:27.532Z,1.69
2023-04-05T03:42:58.162Z,1.68
2023-04-05T03:45:29.785Z,1.68
2023-04-05T03:48:01.348Z,1.65
2023-04-05T03:50:35.012Z,1.60
2023-04-05T03:53:06.086Z,1.68
2023-04-05T03:55:36.737Z,1.65
2023-04-05T03:58:09.951Z,1.68
2023-04-05T04:00:40.586Z,1.68
2023-04-05T04:03:26.226Z,1.64
2023-04-05T04:05:59.792Z,1.66
2023-04-05T04:08:31.763Z,1.64
2023-04-05T04:11:03.587Z,1.61
2023-04-05T04:13:37.968Z,1.60
2023-04-05T04:16:37.502Z,1.56
2023-04-05T04:19:27.390Z,1.60
2023-04-05T04:22:13.403Z,1.61
2023-04-05T04:24:46.575Z,1.60
2023-04-05T04:27:54.967Z,1.60
2023-04-05T04:30:43.624Z,1.59
2023-04-05T04:33:46.864Z,1.59
2023-04-05T04:36:19.013Z,1.60
2023-04-05T04:39:05.787Z,1.61
2023-04-05T04:41:56.170Z,1.61
2023-04-05T04:44:42.838Z,1.59
2023-04-05T04:47:27.848Z,1.64
2023-04-05T04:50:11.829Z,1.67
2023-04-05T04:52:42.725Z,1.71
2023-04-05T04:55:16.482Z,1.74
2023-04-05T04:57:50.531Z,1.73
2023-04-05T05:00:21.902Z,1.84
2023-04-05T05:02:53.665Z,1.71
2023-04-05T05:05:26.783Z,1.98
2023-04-05T05:07:57.397Z,2.01
2023-04-05T05:10:30.610Z,2.05
2023-04-05T05:13:05.756Z,2.10
2023-04-05T05:15:36.641Z,2.14
2023-04-05T05:18:07.406Z,2.19
2023-04-05T05:20:38.169Z,2.26
2023-04-05T05:23:08.782Z,2.33
2023-04-05T05:25:42.771Z,2.39
2023-04-05T05:28:13.383Z,2.33
2023-04-05T05:30:44.201Z,2.36
2023-04-05T05:33:15.009Z,2.42
2023-04-05T05:35:46.653Z,2.57
2023-04-05T05:38:17.574Z,2.77
2023-04-05T05:40:50.866Z,2.92
2023-04-05T05:43:21.294Z,3.06
2023-04-05T05:45:51.946Z,3.15
2023-04-05T05:48:22.626Z,3.18
2023-04-05T05:50:54.683Z,3.25
2023-04-05T05:53:25.175Z,3.27
2023-04-05T05:55:58.368Z,3.26
2023-04-05T05:58:28.888Z,3.28
2023-04-05T06:01:00.125Z,3.27
2023-04-05T06:03:30.780Z,3.45
2023-04-05T06:06:03.424Z,3.44
2023-04-05T06:08:34.024Z,3.51
2023-04-05T06:11:07.522Z,3.42
2023-04-05T06:13:38.149Z,3.31
2023-04-05T06:16:09.164Z,3.24
2023-04-05T06:18:40.344Z,3.26
2023-04-05T06:21:11.000Z,3.27
2023-04-05T06:23:42.108Z,3.24
2023-04-05T06:26:20.687Z,3.34
2023-04-05T06:28:51.399Z,3.51
2023-04-05T06:31:23.865Z,3.62
2023-04-05T06:33:54.737Z,3.71
2023-04-05T06:36:27.402Z,3.87
2023-04-05T06:38:59.567Z,3.92
2023-04-05T06:41:32.852Z,4.06
2023-04-05T06:44:04.329Z,4.01
2023-04-05T06:46:35.204Z,4.04
2023-04-05T06:49:06.156Z,4.14
2023-04-05T06:51:36.796Z,4.44
2023-04-05T06:54:07.635Z,4.74
2023-04-05T06:56:40.882Z,4.87
2023-04-05T06:59:11.480Z,4.83
2023-04-05T07:01:42.596Z,4.87
2023-04-05T07:04:13.271Z,4.97
2023-04-05T07:06:43.892Z,4.93
2023-04-05T07:09:14.527Z,4.99
2023-04-05T07:11:47.858Z,5.05
2023-04-05T07:14:18.476Z,5.02
2023-04-05T07:16:49.827Z,4.88
2023-04-05T07:19:20.718Z,4.77
2023-04-05T07:21:51.541Z,4.61
2023-04-05T07:24:22.716Z,4.60
2023-04-05T07:26:57.093Z,4.55
2023-04-05T07:29:27.914Z,4.62
2023-04-05T07:31:58.971Z,4.71
2023-04-05T07:34:29.517Z,4.70
2023-04-05T07:37:00.826Z,4.76
2023-04-05T07:39:31.464Z,4.85
2023-04-05T07:42:04.689Z,4.86
2023-04-05T07:44:35.300Z,4.83
2023-04-05T07:47:06.227Z,4.94
2023-04-05T07:49:38.087Z,5.04
2023-04-05T07:52:09.102Z,5.12
2023-04-05T07:54:43.459Z,5.17
2023-04-05T07:57:19.069Z,5.16
2023-04-05T07:59:51.142Z,5.25
2023-04-05T08:02:21.913Z,5.41
2023-04-05T08:04:52.498Z,5.60
2023-04-05T08:07:23.160Z,5.79
2023-04-05T08:09:53.874Z,5.89
2023-04-05T08:12:27.200Z,5.91
2023-04-05T08:14:58.000Z,5.92
2023-04-05T08:17:29.323Z,5.90
2023-04-05T08:20:00.127Z,6.00
2023-04-05T08:22:31.980Z,6.07
2023-04-05T08:25:02.878Z,6.17
2023-04-05T08:27:36.319Z,6.27
2023-04-05T08:30:09.047Z,6.21
2023-04-05T08:32:39.866Z,6.15
2023-04-05T08:35:11.313Z,6.16
2023-04-05T08:37:41.857Z,6.18
2023-04-05T08:40:14.645Z,6.24
2023-04-05T08:42:55.173Z,6.22
2023-04-05T08:45:27.334Z,6.23
2023-04-05T08:47:58.078Z,6.28
2023-04-05T08:50:28.825Z,6.50
2023-04-05T08:52:59.484Z,6.75
2023-04-05T08:55:30.014Z,7.07
2023-04-05T08:58:05.473Z,7.28
2023-04-05T09:00:36.418Z,7.39
2023-04-05T09:03:07.939Z,7.49
2023-04-05T09:05:40.922Z,7.90
2023-04-05T09:08:12.343Z,8.21
2023-04-05T09:10:43.446Z,8.49
2023-04-05T09:13:16.652Z,8.88
2023-04-05T09:15:48.286Z,8.99
2023-04-05T09:18:26.300Z,9.09
2023-04-05T09:21:06.697Z,9.48
2023-04-05T09:23:37.932Z,9.65
2023-04-05T09:26:21.992Z,9.69
2023-04-05T09:28:58.059Z,9.75
2023-04-05T09:31:39.450Z,9.77
2023-04-05T09:34:13.137Z,9.36
2023-04-05T09:36:47.123Z,9.26
2023-04-05T09:39:21.851Z,9.28
2023-04-05T09:42:12.110Z,9.21
2023-04-05T09:45:01.665Z,9.22
2023-04-05T09:47:35.678Z,9.17
2023-04-05T09:50:23.355Z,9.41
2023-04-05T09:53:08.649Z,9.56
2023-04-05T09:55:41.254Z,9.44
2023-04-05T09:58:15.559Z,9.39
2023-04-05T10:01:09.844Z,9.55
2023-04-05T10:03:50.209Z,9.64
2023-04-05T10:06:21.811Z,9.59
2023-04-05T10:08:54.514Z,9.85
2023-04-05T10:11:27.636Z,10.10
2023-04-05T10:13:58.625Z,10.17
2023-04-05T10:16:35.701Z,10.35
2023-04-05T10:19:10.328Z,10.24
2023-04-05T10:21:46.709Z,10.34
2023-04-05T10:24:25.659Z,10.68
2023-04-05T10:27:06.496Z,10.90
2023-04-05T10:29:53.596Z,11.17
2023-04-05T10:32:38.890Z,11.22
2023-04-05T10:35:13.265Z,10.44
2023-04-05T10:37:57.007Z,9.89
2023-04-05T10:40:34.998Z,9.98
2023-04-05T10:43:07.358Z,9.96
2023-04-05T10:45:41.964Z,9.99
2023-04-05T10:48:21.969Z,10.12
2023-04-05T10:50:53.302Z,10.06
2023-04-05T10:53:25.150Z,9.97
2023-04-05T10:55:58.562Z,10.13
2023-04-05T10:58:30.268Z,9.95
2023-04-05T11:01:02.489Z,9.91
2023-04-05T11:03:55.209Z,9.61
2023-04-05T11:06:27.836Z,9.70
2023-04-05T11:09:00.641Z,10.08
2023-04-05T11:11:41.926Z,10.74
2023-04-05T11:14:25.528Z,10.90
2023-04-05T11:17:00.015Z,10.83
2023-04-05T11:19:57.020Z,10.74
2023-04-05T11:22:30.684Z,10.83
2023-04-05T11:25:03.352Z,10.92
2023-04-05T11:27:37.519Z,10.83
2023-04-05T11:30:09.801Z,10.85
2023-04-05T11:32:45.069Z,11.16
2023-04-05T11:35:23.555Z,10.91
2023-04-05T11:37:59.019Z,10.70
2023-04-05T11:40:34.480Z,10.62
2023-04-05T11:43:07.731Z,10.62
2023-04-05T11:45:41.033Z,10.53
2023-04-05T11:48:14.442Z,10.26
2023-04-05T11:50:50.318Z,10.21
2023-04-05T11:53:21.638Z,10.19
2023-04-05T11:55:55.591Z,10.20
2023-04-05T11:58:28.684Z,10.43
2023-04-05T12:01:01.978Z,10.50
2023-04-05T12:03:33.409Z,10.53
2023-04-05T12:06:08.577Z,10.48
2023-04-05T12:08:50.088Z,10.38
2023-04-05T12:11:27.851Z,10.34
2023-04-05T12:13:59.847Z,10.26
2023-04-05T12:16:31.217Z,10.34
2023-04-05T12:19:03.621Z,10.11
2023-04-05T12:21:37.372Z,9.75
2023-04-05T12:24:09.143Z,9.76
2023-04-05T12:26:40.495Z,9.71
2023-04-05T12:29:11.299Z,9.72
2023-04-05T12:31:42.939Z,9.71
2023-04-05T12:34:14.858Z,9.70
2023-04-05T12:36:49.612Z,9.95
2023-04-05T12:39:20.572Z,10.26
2023-04-05T12:42:00.312Z,10.38
2023-04-05T12:44:32.699Z,10.58
2023-04-05T12:47:09.734Z,10.89
2023-04-05T12:49:41.145Z,10.83
2023-04-05T12:52:22.798Z,10.55
2023-04-05T12:54:57.779Z,10.35
2023-04-05T12:57:34.149Z,10.35
2023-04-05T13:00:05.487Z,10.45
2023-04-05T13:02:36.147Z,10.38
2023-04-05T13:05:07.233Z,10.29
2023-04-05T13:07:40.477Z,9.97
2023-04-05T13:10:13.122Z,9.78
2023-04-05T13:12:43.710Z,9.92
2023-04-05T13:15:14.544Z,9.96
2023-04-05T13:17:46.141Z,9.75
2023-04-05T13:20:16.799Z,9.49
2023-04-05T13:22:50.714Z,9.65
2023-04-05T13:25:21.397Z,9.50
2023-04-05T13:27:52.260Z,9.46
2023-04-05T13:30:23.287Z,9.55
2023-04-05T13:32:53.998Z,9.56
2023-04-05T13:35:24.793Z,9.63
2023-04-05T13:37:58.204Z,9.48
2023-04-05T13:40:28.850Z,9.34
2023-04-05T13:42:59.600Z,9.22
2023-04-05T13:45:31.643Z,9.28
2023-04-05T13:48:03.718Z,9.41
2023-04-05T13:50:34.438Z,9.67
2023-04-05T13:53:07.689Z,9.73
2023-04-05T13:55:38.343Z,9.72
2023-04-05T13:58:09.244Z,9.73
2023-04-05T14:00:41.816Z,9.73
2023-04-05T14:03:12.790Z,9.88
2023-04-05T14:05:43.510Z,9.77
2023-04-05T14:08:16.786Z,9.98
2023-04-05T14:10:47.514Z,10.25
2023-04-05T14:13:18.636Z,10.24
2023-04-05T14:15:49.751Z,10.07
2023-04-05T14:18:20.598Z,9.98
2023-04-05T14:20:51.573Z,10.08
2023-04-05T14:23:27.196Z,10.23
2023-04-05T14:25:58.102Z,10.17
2023-04-05T14:28:28.804Z,10.05
2023-04-05T14:30:59.967Z,10.23
2023-04-05T14:33:30.878Z,10.40
2023-04-05T14:36:01.793Z,10.49
2023-04-05T14:38:35.289Z,10.58
2023-04-05T14:41:06.344Z,10.56
2023-04-05T14:43:37.315Z,10.44
2023-04-05T14:46:08.644Z,10.38
2023-04-05T14:48:39.649Z,10.03
2023-04-05T14:51:10.615Z,9.77
2023-04-05T14:53:44.257Z,9.66
2023-04-05T14:56:15.007Z,9.59
2023-04-05T14:58:45.854Z,9.57
2023-04-05T15:01:16.730Z,9.54
2023-04-05T15:03:48.545Z,9.57
2023-04-05T15:06:20.079Z,9.61
2023-04-05T15:08:59.504Z,9.85
2023-04-05T15:11:34.289Z,9.80
2023-04-05T15:14:04.913Z,9.75
2023-04-05T15:16:35.673Z,9.67
2023-04-05T15:19:06.718Z,9.65
2023-04-05T15:21:39.224Z,9.48
2023-04-05T15:24:13.724Z,9.33
2023-04-05T15:26:44.436Z,9.22
2023-04-05T15:29:15.184Z,9.29
2023-04-05T15:31:46.476Z,9.36
2023-04-05T15:34:17.290Z,9.39
2023-04-05T15:36:48.175Z,9.52
2023-04-05T15:39:21.848Z,9.68
2023-04-05T15:41:53.038Z,9.83
2023-04-05T15:44:23.843Z,9.83
2023-04-05T15:46:54.734Z,9.82
2023-04-05T15:49:25.798Z,9.84
2023-04-05T15:51:56.707Z,9.97
2023-04-05T15:54:30.343Z,10.09
2023-04-05T15:57:02.176Z,9.99
2023-04-05T15:59:33.609Z,9.96
2023-04-05T16:02:05.347Z,9.88
2023-04-05T16:04:36.261Z,9.81
2023-04-05T16:07:07.899Z,9.82
2023-04-05T16:09:41.392Z,9.92
2023-04-05T16:12:12.247Z,9.92
2023-04-05T16:14:43.142Z,9.89
2023-04-05T16:17:14.050Z,9.82
2023-04-05T16:19:44.947Z,9.71
2023-04-05T16:22:16.117Z,9.72
2023-04-05T16:24:49.561Z,9.60
2023-04-05T16:27:20.444Z,9.57
2023-04-05T16:29:51.423Z,9.42
2023-04-05T16:32:22.755Z,9.24
2023-04-05T16:34:53.928Z,9.28
2023-04-05T16:37:24.814Z,9.28
2023-04-05T16:39:58.237Z,9.25
2023-04-05T16:42:29.085Z,9.15
2023-04-05T16:45:01.915Z,8.98
2023-04-05T16:47:32.779Z,8.99
2023-04-05T16:50:03.657Z,8.78
2023-04-05T16:52:34.636Z,8.71
2023-04-05T16:55:08.678Z,8.60
2023-04-05T16:57:39.755Z,8.47
2023-04-05T17:00:12.082Z,8.38
2023-04-05T17:02:43.005Z,8.35
2023-04-05T17:05:14.321Z,8.32
2023-04-05T17:07:45.464Z,8.23
2023-04-05T17:10:19.132Z,8.16
2023-04-05T17:12:50.167Z,8.12
2023-04-05T17:15:21.394Z,8.08
2023-04-05T17:17:52.973Z,8.02
2023-04-05T17:20:23.983Z,7.98
2023-04-05T17:22:58.412Z,7.97
2023-04-05T17:25:31.924Z,7.92
2023-04-05T17:28:03.335Z,7.84
2023-04-05T17:30:34.963Z,7.80
2023-04-05T17:33:05.937Z,7.75
2023-04-05T17:35:36.884Z,7.73
2023-04-05T17:38:07.786Z,7.71
2023-04-05T17:40:41.089Z,7.74
2023-04-05T17:43:12.907Z,7.71
2023-04-05T17:45:43.873Z,7.67
2023-04-05T17:48:14.873Z,7.64
2023-04-05T17:50:45.718Z,7.62
2023-04-05T17:53:17.431Z,7.58
2023-04-05T17:55:50.873Z,7.51
2023-04-05T17:58:21.923Z,7.48
2023-04-05T18:00:53.460Z,7.45
2023-04-05T18:03:24.454Z,7.42
2023-04-05T18:05:55.490Z,7.39
2023-04-05T18:08:29.175Z,7.37
2023-04-05T18:11:03.454Z,7.30
2023-04-05T18:13:34.244Z,7.22
2023-04-05T18:16:05.050Z,7.25
2023-04-05T18:18:36.105Z,7.21
2023-04-05T18:21:07.666Z,7.17
2023-04-05T18:23:38.408Z,7.11
2023-04-05T18:26:13.943Z,7.11
2023-04-05T18:28:44.777Z,7.10
2023-04-05T18:31:16.097Z,7.07
2023-04-05T18:33:46.957Z,7.04
2023-04-05T18:36:17.812Z,6.99
2023-04-05T18:38:48.947Z,6.94
2023-04-05T18:41:22.458Z,6.91
2023-04-05T18:43:56.559Z,6.89
2023-04-05T18:46:27.588Z,6.82
2023-04-05T18:48:58.654Z,6.72
2023-04-05T18:51:30.059Z,6.78
2023-04-05T18:54:01.220Z,6.74
2023-04-05T18:56:34.752Z,6.67
2023-04-05T18:59:06.140Z,6.56
2023-04-05T19:01:37.334Z,6.48
2023-04-05T19:04:08.594Z,6.63
2023-04-05T19:06:39.834Z,6.63
2023-04-05T19:09:11.982Z,6.61
2023-04-05T19:11:45.625Z,6.64
2023-04-05T19:14:16.592Z,6.65
2023-04-05T19:16:47.474Z,6.64
2023-04-05T19:19:19.276Z,6.65
2023-04-05T19:21:50.124Z,6.62
2023-04-05T19:24:22.174Z,6.57
2023-04-05T19:26:57.132Z,6.59
2023-04-05T19:29:28.050Z,6.53
2023-04-05T19:31:58.990Z,6.50
2023-04-05T19:34:29.878Z,6.43
2023-04-05T19:37:02.314Z,6.33
2023-04-05T19:39:33.600Z,6.41
2023-04-05T19:42:08.272Z,6.38
2023-04-05T19:44:47.861Z,6.28
2023-04-05T19:47:22.929Z,6.32
2023-04-05T19:49:56.669Z,6.28
2023-04-05T19:52:39.569Z,6.20
2023-04-05T19:55:30.997Z,6.14
2023-04-05T19:58:06.648Z,5.98
2023-04-05T20:00:41.496Z,6.11
2023-04-05T20:03:32.392Z,6.07
2023-04-05T20:06:11.372Z,6.04
2023-04-05T20:08:44.159Z,6.00
2023-04-05T20:11:16.600Z,5.91
2023-04-05T20:13:52.204Z,5.96
2023-04-05T20:16:28.780Z,5.95
2023-04-05T20:19:01.702Z,5.93
2023-04-05T20:21:32.900Z,5.86
2023-04-05T20:24:04.903Z,5.88
2023-04-05T20:26:36.465Z,5.75
2023-04-05T20:29:12.194Z,5.78
2023-04-05T20:31:43.630Z,5.88
2023-04-05T20:34:16.664Z,5.90
2023-04-05T20:36:51.135Z,5.79
2023-04-05T20:39:23.928Z,5.88
2023-04-05T20:41:56.059Z,5.73
2023-04-05T20:44:30.638Z,5.70
2023-04-05T20:47:01.643Z,5.85
2023-04-05T20:49:32.878Z,5.76
2023-04-05T20:52:07.862Z,5.67
2023-04-05T20:54:38.883Z,5.42
2023-04-05T20:57:09.980Z,5.53
2023-04-05T20:59:46.819Z,5.43
2023-04-05T21:02:17.976Z,5.40
2023-04-05T21:04:50.728Z,5.33
2023-04-05T21:07:22.207Z,5.33
2023-04-05T21:09:53.396Z,5.27
2023-04-05T21:12:24.373Z,5.28
2023-04-05T21:15:00.445Z,5.21
2023-04-05T21:17:31.750Z,5.20
2023-04-05T21:20:02.605Z,5.04
2023-04-05T21:22:33.748Z,5.12
2023-04-05T21:25:08.738Z,5.15
2023-04-05T21:27:39.540Z,5.13
2023-04-05T21:30:17.498Z,5.17
2023-04-05T21:32:48.583Z,5.18
2023-04-05T21:35:20.218Z,5.16
2023-04-05T21:37:51.383Z,5.10
2023-04-05T21:40:22.926Z,5.07
2023-04-05T21:42:54.058Z,5.05
2023-04-05T21:45:28.089Z,5.02
2023-04-05T21:47:58.871Z,5.01
2023-04-05T21:50:30.784Z,4.98
2023-04-05T21:53:01.631Z,4.91
2023-04-05T21:55:32.519Z,4.95
2023-04-05T21:58:03.251Z,4.90
2023-04-05T22:00:36.943Z,4.91
2023-04-05T22:03:07.810Z,4.88
2023-04-05T22:05:39.174Z,4.85
2023-04-05T22:08:11.453Z,4.71
2023-04-05T22:10:43.968Z,4.83
2023-04-05T22:13:15.024Z,4.80
2023-04-05T22:15:49.449Z,4.77
2023-04-05T22:18:20.245Z,4.74
2023-04-05T22:20:51.003Z,4.55
2023-04-05T22:23:21.816Z,4.72
2023-04-05T22:25:53.481Z,4.69
2023-04-05T22:28:24.711Z,4.70
2023-04-05T22:30:58.417Z,4.70
2023-04-05T22:33:29.194Z,4.70
2023-04-05T22:36:00.051Z,4.69
2023-04-05T22:38:30.925Z,4.53
2023-04-05T22:41:01.830Z,4.63
2023-04-05T22:43:32.704Z,4.55
2023-04-05T22:46:06.175Z,4.64
2023-04-05T22:48:36.980Z,4.62
2023-04-05T22:51:08.597Z,4.64
2023-04-05T22:53:40.935Z,4.61
2023-04-05T22:56:11.959Z,4.62
2023-04-05T22:58:42.851Z,4.56
2023-04-05T23:01:16.315Z,4.51
2023-04-05T23:03:47.231Z,4.49
2023-04-05T23:06:18.144Z,4.48
2023-04-05T23:08:49.149Z,4.36
2023-04-05T23:11:20.074Z,4.39
2023-04-05T23:13:51.276Z,4.38
2023-04-05T23:16:24.871Z,4.38
2023-04-05T23:18:55.716Z,4.34
2023-04-05T23:21:26.676Z,4.31
2023-04-05T23:23:57.718Z,4.29
2023-04-05T23:26:30.026Z,4.14
2023-04-05T23:29:00.939Z,4.31
2023-04-05T23:31:34.791Z,4.33
2023-04-05T23:34:05.596Z,4.18
2023-04-05T23:36:36.306Z,4.22
2023-04-05T23:39:07.734Z,4.14
2023-04-05T23:41:38.893Z,4.24
2023-04-05T23:44:09.808Z,4.23
2023-04-05T23:46:43.388Z,4.20
2023-04-05T23:49:14.276Z,4.12
2023-04-05T23:51:45.763Z,4.22
2023-04-05T23:54:16.694Z,4.15
2023-04-05T23:56:47.813Z,4.14
2023-04-05T23:59:18.824Z,4.11
